ΕΜΥ, Εθνική Μετεωρολογική Υπηρεσία - Δελτία Καιρού, Προγνώσεις

ΑΕΡΟΝΑΥΤΙΛΙΑ

GREEK AIRPORTS CODES

LGSK 271950Z 00000KT 9999 FEW020 23/14 Q1015=

EUROPEAN AIRPORTS CODES

LFPO 280200Z AUTO 01003KT CAVOK 15/11 Q1021 NOSIG=